Aviation Digital Data Service (ADDS)

Output produced by METARs form (1644 UTC 25 October 2014)
found at http://aviationweather.gov/adds/metars/
 
KLGA 251433Z 2515/2612 29011KT P6SM FEW050 
     FM251800 25012G21KT P6SM SCT050 
     FM252300 26014KT P6SM BKN050 
     FM260900 29014G22KT P6SM SCT050